Wan Hai 501 — S6AS7 — position and weather

sailwx.info

Track history (hours):
 
Tides and Currents Weather Stations Pressure Air Temp Water Temp Dewpoint Dewpoint Depression Visibility Wind Speed Wind Dir Waves Ship Positions

Wan Hai 501

Last reported at 2015-Apr-14 19:22 UTC. Time now 2015-May-05 01:10 UTC.
Position N 02°03' E 102°09'.
Warning: this ship's position is 20 days out of date.

Length 268 m; draft 11 m.

Type: Cargo ship. MMSI: 563382000.

Date/timePositionNaut miles runAvg speedWind from/ knotsBaromVisibWave heightAir tempDewpointWater temp
2015-Apr-14 19:22N 02°03' E 102°09'1618.9
2015-Apr-14 18:33N 01°53' E 102°22'2019.8
2015-Apr-14 17:33N 01°45' E 102°39'7017.4
2015-Apr-14 13:33N 01°14' E 103°42'6 1.1
2015-Apr-14 08:22N 01°16' E 103°47'0 0.0
2015-Apr-14 07:22N 01°16' E 103°47'0 0.0
2015-Apr-14 06:25N 01°16' E 103°47'0 0.0
2015-Apr-14 05:28N 01°16' E 103°47'0 0.0
2015-Apr-14 04:28N 01°16' E 103°47'0 0.0
2015-Apr-14 03:31N 01°16' E 103°47'0 0.0
2015-Apr-14 02:22N 01°16' E 103°47'0 0.0
2015-Apr-14 01:28N 01°16' E 103°47'0 0.0
2015-Apr-14 00:25N 01°16' E 103°47'4 4.2
2015-Apr-13 23:33N 01°13' E 103°49'7 7.3
2015-Apr-13 22:33N 01°14' E 103°56'1110.6
2015-Apr-13 21:33N 01°17' E 104°06'1411.4
2015-Apr-13 20:21N 01°19' E 104°20'94 7.8
2015-Apr-13 08:23N 02°44' E 104°59'1 1.3
2015-Apr-13 07:32N 02°45' E 104°60'3 3.3
2015-Apr-13 06:33N 02°48' E 105°01'1514.8
2015-Apr-13 05:33N 03°01' E 105°06'1616.2
2015-Apr-13 04:33N 03°16' E 105°12'1616.0
2015-Apr-13 03:33N 03°31' E 105°20'1615.9
2015-Apr-13 02:33N 03°44' E 105°29'1615.9
2015-Apr-13 01:33N 03°57' E 105°38'1615.7
2015-Apr-13 00:33N 04°10' E 105°47'1615.6
2015-Apr-12 23:33N 04°22' E 105°56'1615.6
2015-Apr-12 22:34N 04°35' E 106°05'1615.6
2015-Apr-12 21:33N 04°48' E 106°14'1615.6
2015-Apr-12 20:33N 05°01' E 106°23'2015.7
2015-Apr-12 19:17N 05°17' E 106°34'1215.9
2015-Apr-12 18:32N 05°27' E 106°41'2015.9
2015-Apr-12 17:18N 05°43' E 106°52'1315.7
2015-Apr-12 16:29N 05°54' E 106°60'1515.7
2015-Apr-12 15:32N 06°06' E 107°09'  
2015-Apr-09 23:19N 21°56' E 114°01'1718.6
2015-Apr-09 22:24N 22°09' E 114°12'1112.9
2015-Apr-09 21:34N 22°18' E 114°06'3 3.0
2015-Apr-09 20:33N 22°20' E 114°07'0 0.0
2015-Apr-09 19:33N 22°20' E 114°07'0 0.0
2015-Apr-09 18:33N 22°20' E 114°07'0 0.0
2015-Apr-09 17:33N 22°20' E 114°07'0 0.0
2015-Apr-09 16:30N 22°20' E 114°07'0 0.0
2015-Apr-09 15:33N 22°20' E 114°07'0 0.0
2015-Apr-09 14:30N 22°20' E 114°07'0 0.0
2015-Apr-09 13:30N 22°20' E 114°07'2 2.0
2015-Apr-09 12:33N 22°19' E 114°06'1010.3
2015-Apr-09 11:33N 22°10' E 114°12'1110.7
2015-Apr-09 10:33N 22°09' E 114°24'1 1.0
2015-Apr-09 09:33N 22°09' E 114°25'7 7.4
2015-Apr-09 08:33N 22°10' E 114°33'24116.0
2015-Apr-08 17:33N 23°56' E 118°27'3215.9
2015-Apr-08 15:33N 24°17' E 118°53'1715.5
2015-Apr-08 14:27N 24°29' E 119°07'1415.5
2015-Apr-08 13:33N 24°38' E 119°18'2115.5
2015-Apr-08 12:13N 24°52' E 119°35'31118.2
2015-Apr-07 19:10N 29°23' E 122°25'1219.6
2015-Apr-07 18:33N 29°35' E 122°27'1616.0
2015-Apr-07 17:34N 29°48' E 122°15'1211.6
2015-Apr-07 16:33N 29°47' E 122°02'1 1.0
2015-Apr-07 15:23N 29°46' E 122°00'0 0.0
2015-Apr-07 13:05N 29°46' E 122°00'0 0.0
2015-Apr-07 11:29N 29°46' E 122°00'0 0.0
2015-Apr-07 07:11N 29°46' E 122°00'0 0.0
2015-Apr-07 00:33N 29°46' E 122°01'4 4.4
2015-Apr-06 23:33N 29°48' E 122°05'9 9.0
2015-Apr-06 22:33N 29°48' E 122°16'10 9.5
2015-Apr-06 21:33N 29°45' E 122°26'1 0.8
2015-Apr-06 20:23N 29°46' E 122°27'0 0.0
2015-Apr-06 18:23N 29°46' E 122°27'0 0.1
2015-Apr-06 17:17N 29°46' E 122°27'0 0.0
2015-Apr-06 16:22N 29°46' E 122°27'0 0.1
2015-Apr-06 14:11N 29°46' E 122°27'0 0.0
2015-Apr-06 09:04N 29°46' E 122°27'0 0.0
2015-Apr-06 01:33N 29°46' E 122°27'1110.7
2015-Apr-06 00:33N 29°51' E 122°38'2320.2
2015-Apr-05 23:26N 30°12' E 122°50'5418.5
2015-Apr-05 20:29N 31°05' E 122°37'1414.9
2015-Apr-05 19:33N 31°06' E 122°21'1514.6
2015-Apr-05 18:33N 31°13' E 122°06'1312.6
2015-Apr-05 17:34N 31°16' E 121°52'1110.7
2015-Apr-05 16:33N 31°20' E 121°40'0 0.2
2015-Apr-05 15:28N 31°20' E 121°40'0 0.0
2015-Apr-05 14:31N 31°20' E 121°40'0 0.0
2015-Apr-05 13:31N 31°20' E 121°40'0 0.0
2015-Apr-05 12:31N 31°20' E 121°40'0 0.0
2015-Apr-05 11:31N 31°20' E 121°40'0 0.0
2015-Apr-05 10:31N 31°20' E 121°40'0 0.0
2015-Apr-05 09:31N 31°20' E 121°40'0 0.0
2015-Apr-05 08:28N 31°20' E 121°40'0 0.0
2015-Apr-05 07:31N 31°20' E 121°40'0 0.0
2015-Apr-05 06:31N 31°20' E 121°40'0 0.0
2015-Apr-05 05:31N 31°20' E 121°40'0 0.0
2015-Apr-05 04:31N 31°20' E 121°40'0 0.0
2015-Apr-05 03:31N 31°20' E 121°40'0 0.0
2015-Apr-05 02:31N 31°20' E 121°40'0 0.0
2015-Apr-05 01:31N 31°20' E 121°40'0 0.0
2015-Apr-05 00:31N 31°20' E 121°40'0 0.0
2015-Apr-04 23:31N 31°20' E 121°40'0 0.0
2015-Apr-04 22:31N 31°20' E 121°40'0 0.0
2015-Apr-04 21:31N 31°20' E 121°40'0 0.0
2015-Apr-04 20:31N 31°20' E 121°40'0 0.0
2015-Apr-04 19:31N 31°20' E 121°40'  
Track history (hours):
 
Tides and Currents Weather Stations Pressure Air Temp Water Temp Dewpoint Dewpoint Depression Visibility Wind Speed Wind Dir Waves Ship Positions

Wan Hai 501

Last reported at 2015-Apr-14 19:22 UTC. Time now 2015-May-05 01:10 UTC.
Position N 02°03' E 102°09'.
Warning: this ship's position is 20 days out of date.

Length 268 m; draft 11 m.

Type: Cargo ship. MMSI: 563382000.

Date/timePositionNaut miles runAvg speedWind from/ knotsBaromVisibWave heightAir tempDewpointWater temp
2015-Apr-14 19:22N 02°03' E 102°09'1618.9
2015-Apr-14 18:33N 01°53' E 102°22'2019.8
2015-Apr-14 17:33N 01°45' E 102°39'7017.4
2015-Apr-14 13:33N 01°14' E 103°42'6 1.1
2015-Apr-14 08:22N 01°16' E 103°47'0 0.0
2015-Apr-14 07:22N 01°16' E 103°47'0 0.0
2015-Apr-14 06:25N 01°16' E 103°47'0 0.0
2015-Apr-14 05:28N 01°16' E 103°47'0 0.0
2015-Apr-14 04:28N 01°16' E 103°47'0 0.0
2015-Apr-14 03:31N 01°16' E 103°47'0 0.0
2015-Apr-14 02:22N 01°16' E 103°47'0 0.0
2015-Apr-14 01:28N 01°16' E 103°47'0 0.0
2015-Apr-14 00:25N 01°16' E 103°47'4 4.2
2015-Apr-13 23:33N 01°13' E 103°49'7 7.3
2015-Apr-13 22:33N 01°14' E 103°56'1110.6
2015-Apr-13 21:33N 01°17' E 104°06'1411.4
2015-Apr-13 20:21N 01°19' E 104°20'94 7.8
2015-Apr-13 08:23N 02°44' E 104°59'1 1.3
2015-Apr-13 07:32N 02°45' E 104°60'3 3.3
2015-Apr-13 06:33N 02°48' E 105°01'1514.8
2015-Apr-13 05:33N 03°01' E 105°06'1616.2
2015-Apr-13 04:33N 03°16' E 105°12'1616.0
2015-Apr-13 03:33N 03°31' E 105°20'1615.9
2015-Apr-13 02:33N 03°44' E 105°29'1615.9
2015-Apr-13 01:33N 03°57' E 105°38'1615.7
2015-Apr-13 00:33N 04°10' E 105°47'1615.6
2015-Apr-12 23:33N 04°22' E 105°56'1615.6
2015-Apr-12 22:34N 04°35' E 106°05'1615.6
2015-Apr-12 21:33N 04°48' E 106°14'1615.6
2015-Apr-12 20:33N 05°01' E 106°23'2015.7
2015-Apr-12 19:17N 05°17' E 106°34'1215.9
2015-Apr-12 18:32N 05°27' E 106°41'2015.9
2015-Apr-12 17:18N 05°43' E 106°52'1315.7
2015-Apr-12 16:29N 05°54' E 106°60'1515.7
2015-Apr-12 15:32N 06°06' E 107°09'  
2015-Apr-09 23:19N 21°56' E 114°01'1718.6
2015-Apr-09 22:24N 22°09' E 114°12'1112.9
2015-Apr-09 21:34N 22°18' E 114°06'3 3.0
2015-Apr-09 20:33N 22°20' E 114°07'0 0.0
2015-Apr-09 19:33N 22°20' E 114°07'0 0.0
2015-Apr-09 18:33N 22°20' E 114°07'0 0.0
2015-Apr-09 17:33N 22°20' E 114°07'0 0.0
2015-Apr-09 16:30N 22°20' E 114°07'0 0.0
2015-Apr-09 15:33N 22°20' E 114°07'0 0.0
2015-Apr-09 14:30N 22°20' E 114°07'0 0.0
2015-Apr-09 13:30N 22°20' E 114°07'2 2.0
2015-Apr-09 12:33N 22°19' E 114°06'1010.3
2015-Apr-09 11:33N 22°10' E 114°12'1110.7
2015-Apr-09 10:33N 22°09' E 114°24'1 1.0
2015-Apr-09 09:33N 22°09' E 114°25'7 7.4
2015-Apr-09 08:33N 22°10' E 114°33'24116.0
2015-Apr-08 17:33N 23°56' E 118°27'3215.9
2015-Apr-08 15:33N 24°17' E 118°53'1715.5
2015-Apr-08 14:27N 24°29' E 119°07'1415.5
2015-Apr-08 13:33N 24°38' E 119°18'2115.5
2015-Apr-08 12:13N 24°52' E 119°35'31118.2
2015-Apr-07 19:10N 29°23' E 122°25'1219.6
2015-Apr-07 18:33N 29°35' E 122°27'1616.0
2015-Apr-07 17:34N 29°48' E 122°15'1211.6
2015-Apr-07 16:33N 29°47' E 122°02'1 1.0
2015-Apr-07 15:23N 29°46' E 122°00'0 0.0
2015-Apr-07 13:05N 29°46' E 122°00'0 0.0
2015-Apr-07 11:29N 29°46' E 122°00'0 0.0
2015-Apr-07 07:11N 29°46' E 122°00'0 0.0
2015-Apr-07 00:33N 29°46' E 122°01'4 4.4
2015-Apr-06 23:33N 29°48' E 122°05'9 9.0
2015-Apr-06 22:33N 29°48' E 122°16'10 9.5
2015-Apr-06 21:33N 29°45' E 122°26'1 0.8
2015-Apr-06 20:23N 29°46' E 122°27'0 0.0
2015-Apr-06 18:23N 29°46' E 122°27'0 0.1
2015-Apr-06 17:17N 29°46' E 122°27'0 0.0
2015-Apr-06 16:22N 29°46' E 122°27'0 0.1
2015-Apr-06 14:11N 29°46' E 122°27'0 0.0
2015-Apr-06 09:04N 29°46' E 122°27'0 0.0
2015-Apr-06 01:33N 29°46' E 122°27'1110.7
2015-Apr-06 00:33N 29°51' E 122°38'2320.2
2015-Apr-05 23:26N 30°12' E 122°50'5418.5
2015-Apr-05 20:29N 31°05' E 122°37'1414.9
2015-Apr-05 19:33N 31°06' E 122°21'1514.6
2015-Apr-05 18:33N 31°13' E 122°06'1312.6
2015-Apr-05 17:34N 31°16' E 121°52'1110.7
2015-Apr-05 16:33N 31°20' E 121°40'0 0.2
2015-Apr-05 15:28N 31°20' E 121°40'0 0.0
2015-Apr-05 14:31N 31°20' E 121°40'0 0.0
2015-Apr-05 13:31N 31°20' E 121°40'0 0.0
2015-Apr-05 12:31N 31°20' E 121°40'0 0.0
2015-Apr-05 11:31N 31°20' E 121°40'0 0.0
2015-Apr-05 10:31N 31°20' E 121°40'0 0.0
2015-Apr-05 09:31N 31°20' E 121°40'0 0.0
2015-Apr-05 08:28N 31°20' E 121°40'0 0.0
2015-Apr-05 07:31N 31°20' E 121°40'0 0.0
2015-Apr-05 06:31N 31°20' E 121°40'0 0.0
2015-Apr-05 05:31N 31°20' E 121°40'0 0.0
2015-Apr-05 04:31N 31°20' E 121°40'0 0.0
2015-Apr-05 03:31N 31°20' E 121°40'0 0.0
2015-Apr-05 02:31N 31°20' E 121°40'0 0.0
2015-Apr-05 01:31N 31°20' E 121°40'0 0.0
2015-Apr-05 00:31N 31°20' E 121°40'0 0.0
2015-Apr-04 23:31N 31°20' E 121°40'0 0.0
2015-Apr-04 22:31N 31°20' E 121°40'0 0.0
2015-Apr-04 21:31N 31°20' E 121°40'0 0.0
2015-Apr-04 20:31N 31°20' E 121°40'0 0.0
2015-Apr-04 19:31N 31°20' E 121°40'  

Dump ship's entire track history